sensor_id;sensor_type;location;lat;lon;timestamp;temperature;humidity
7518;DHT22;3800;48.922;9.444;2023-04-01T00:01:58;8.90;99.90
7518;DHT22;3800;48.922;9.444;2023-04-01T00:04:26;8.90;99.90
7518;DHT22;3800;48.922;9.444;2023-04-01T00:06:54;8.90;99.90
7518;DHT22;3800;48.922;9.444;2023-04-01T00:09:23;8.90;99.90
7518;DHT22;3800;48.922;9.444;2023-04-01T00:11:52;8.90;99.90
7518;DHT22;3800;48.922;9.444;2023-04-01T00:14:21;8.90;99.90
7518;DHT22;3800;48.922;9.444;2023-04-01T00:16:49;8.80;99.90
7518;DHT22;3800;48.922;9.444;2023-04-01T00:19:18;8.90;99.90
7518;DHT22;3800;48.922;9.444;2023-04-01T00:21:46;8.90;99.90
7518;DHT22;3800;48.922;9.444;2023-04-01T00:24:15;8.90;99.90
7518;DHT22;3800;48.922;9.444;2023-04-01T00:26:43;8.90;99.90
7518;DHT22;3800;48.922;9.444;2023-04-01T00:29:11;8.90;99.90
7518;DHT22;3800;48.922;9.444;2023-04-01T00:31:39;8.90;99.90
7518;DHT22;3800;48.922;9.444;2023-04-01T00:34:07;8.90;99.90
7518;DHT22;3800;48.922;9.444;2023-04-01T00:36:36;8.90;99.90
7518;DHT22;3800;48.922;9.444;2023-04-01T00:39:05;8.80;99.90
7518;DHT22;3800;48.922;9.444;2023-04-01T00:41:33;8.90;99.90
7518;DHT22;3800;48.922;9.444;2023-04-01T00:44:19;8.90;99.90
7518;DHT22;3800;48.922;9.444;2023-04-01T00:46:46;8.90;99.90
7518;DHT22;3800;48.922;9.444;2023-04-01T00:49:14;8.90;99.90
7518;DHT22;3800;48.922;9.444;2023-04-01T00:51:43;8.90;99.90
7518;DHT22;3800;48.922;9.444;2023-04-01T00:54:11;8.80;99.90
7518;DHT22;3800;48.922;9.444;2023-04-01T00:56:41;8.80;99.90
7518;DHT22;3800;48.922;9.444;2023-04-01T00:59:11;8.80;99.90
7518;DHT22;3800;48.922;9.444;2023-04-01T01:01:39;8.80;99.90
7518;DHT22;3800;48.922;9.444;2023-04-01T01:04:19;8.80;99.90
7518;DHT22;3800;48.922;9.444;2023-04-01T01:06:46;8.70;99.90
7518;DHT22;3800;48.922;9.444;2023-04-01T01:09:30;8.70;99.90
7518;DHT22;3800;48.922;9.444;2023-04-01T01:12:03;8.70;99.90
7518;DHT22;3800;48.922;9.444;2023-04-01T01:14:39;8.70;99.90
7518;DHT22;3800;48.922;9.444;2023-04-01T01:17:22;8.80;99.90
7518;DHT22;3800;48.922;9.444;2023-04-01T01:19:55;8.80;99.90
7518;DHT22;3800;48.922;9.444;2023-04-01T01:22:39;8.80;99.90
7518;DHT22;3800;48.922;9.444;2023-04-01T01:25:10;8.80;99.90
7518;DHT22;3800;48.922;9.444;2023-04-01T01:27:37;8.80;99.90
7518;DHT22;3800;48.922;9.444;2023-04-01T01:33:24;8.80;99.90
7518;DHT22;3800;48.922;9.444;2023-04-01T01:35:54;8.80;99.90
7518;DHT22;3800;48.922;9.444;2023-04-01T01:38:23;8.80;99.90
7518;DHT22;3800;48.922;9.444;2023-04-01T01:40:51;8.80;99.90
7518;DHT22;3800;48.922;9.444;2023-04-01T01:43:20;8.80;99.90
7518;DHT22;3800;48.922;9.444;2023-04-01T01:45:48;8.80;99.90
7518;DHT22;3800;48.922;9.444;2023-04-01T01:48:15;8.80;99.90
7518;DHT22;3800;48.922;9.444;2023-04-01T01:50:44;8.80;99.90
7518;DHT22;3800;48.922;9.444;2023-04-01T01:53:12;8.80;99.90
7518;DHT22;3800;48.922;9.444;2023-04-01T01:55:42;8.80;99.90
7518;DHT22;3800;48.922;9.444;2023-04-01T01:58:29;8.90;99.90
7518;DHT22;3800;48.922;9.444;2023-04-01T02:00:57;8.80;99.90
7518;DHT22;3800;48.922;9.444;2023-04-01T02:03:27;8.90;99.90
7518;DHT22;3800;48.922;9.444;2023-04-01T02:05:56;8.90;99.90
7518;DHT22;3800;48.922;9.444;2023-04-01T02:08:40;8.90;99.90
7518;DHT22;3800;48.922;9.444;2023-04-01T02:11:09;8.90;99.90
7518;DHT22;3800;48.922;9.444;2023-04-01T02:13:40;8.90;99.90
7518;DHT22;3800;48.922;9.444;2023-04-01T02:16:13;8.90;99.90
7518;DHT22;3800;48.922;9.444;2023-04-01T02:18:41;8.80;99.90
7518;DHT22;3800;48.922;9.444;2023-04-01T02:21:09;8.70;99.90
7518;DHT22;3800;48.922;9.444;2023-04-01T02:23:37;8.70;99.90
7518;DHT22;3800;48.922;9.444;2023-04-01T02:26:06;8.60;99.90
7518;DHT22;3800;48.922;9.444;2023-04-01T02:28:34;8.60;99.90
7518;DHT22;3800;48.922;9.444;2023-04-01T02:31:02;8.50;99.90
7518;DHT22;3800;48.922;9.444;2023-04-01T02:33:30;8.50;99.90
7518;DHT22;3800;48.922;9.444;2023-04-01T02:35:58;8.50;99.90
7518;DHT22;3800;48.922;9.444;2023-04-01T02:38:27;8.40;99.90
7518;DHT22;3800;48.922;9.444;2023-04-01T02:40:57;8.40;99.90
7518;DHT22;3800;48.922;9.444;2023-04-01T02:43:24;8.40;99.90
7518;DHT22;3800;48.922;9.444;2023-04-01T02:45:52;8.40;99.90
7518;DHT22;3800;48.922;9.444;2023-04-01T02:48:20;8.30;99.90
7518;DHT22;3800;48.922;9.444;2023-04-01T02:50:49;8.30;99.90
7518;DHT22;3800;48.922;9.444;2023-04-01T02:53:18;8.30;99.90
7518;DHT22;3800;48.922;9.444;2023-04-01T02:55:46;8.30;99.90
7518;DHT22;3800;48.922;9.444;2023-04-01T02:58:14;8.30;99.90
7518;DHT22;3800;48.922;9.444;2023-04-01T03:00:43;8.30;99.90
7518;DHT22;3800;48.922;9.444;2023-04-01T03:03:11;8.30;99.90
7518;DHT22;3800;48.922;9.444;2023-04-01T03:05:39;8.30;99.90
7518;DHT22;3800;48.922;9.444;2023-04-01T03:08:07;8.30;99.90
7518;DHT22;3800;48.922;9.444;2023-04-01T03:10:35;8.20;99.90
7518;DHT22;3800;48.922;9.444;2023-04-01T03:13:04;8.20;99.90
7518;DHT22;3800;48.922;9.444;2023-04-01T03:15:32;8.20;99.90
7518;DHT22;3800;48.922;9.444;2023-04-01T03:18:00;8.20;99.90
7518;DHT22;3800;48.922;9.444;2023-04-01T03:20:29;8.20;99.90
7518;DHT22;3800;48.922;9.444;2023-04-01T03:22:57;8.20;99.90
7518;DHT22;3800;48.922;9.444;2023-04-01T03:25:26;8.20;99.90
7518;DHT22;3800;48.922;9.444;2023-04-01T03:27:54;8.20;99.90
7518;DHT22;3800;48.922;9.444;2023-04-01T03:30:22;8.20;99.90
7518;DHT22;3800;48.922;9.444;2023-04-01T03:32:51;8.10;99.90
7518;DHT22;3800;48.922;9.444;2023-04-01T03:35:19;8.10;99.90
7518;DHT22;3800;48.922;9.444;2023-04-01T03:37:48;8.10;99.90
7518;DHT22;3800;48.922;9.444;2023-04-01T03:40:16;8.10;99.90
7518;DHT22;3800;48.922;9.444;2023-04-01T03:42:44;8.10;99.90
7518;DHT22;3800;48.922;9.444;2023-04-01T03:45:13;8.10;99.90
7518;DHT22;3800;48.922;9.444;2023-04-01T03:47:41;8.10;99.90
7518;DHT22;3800;48.922;9.444;2023-04-01T03:50:10;8.10;99.90
7518;DHT22;3800;48.922;9.444;2023-04-01T03:52:39;8.10;99.90
7518;DHT22;3800;48.922;9.444;2023-04-01T03:55:08;8.10;99.90
7518;DHT22;3800;48.922;9.444;2023-04-01T03:57:36;8.10;99.90
7518;DHT22;3800;48.922;9.444;2023-04-01T04:00:05;8.10;99.90
7518;DHT22;3800;48.922;9.444;2023-04-01T04:02:35;8.10;99.90
7518;DHT22;3800;48.922;9.444;2023-04-01T04:05:04;8.00;99.90
7518;DHT22;3800;48.922;9.444;2023-04-01T04:07:33;8.00;99.90
7518;DHT22;3800;48.922;9.444;2023-04-01T04:10:01;8.00;99.90
7518;DHT22;3800;48.922;9.444;2023-04-01T04:12:30;7.90;99.90
7518;DHT22;3800;48.922;9.444;2023-04-01T04:14:58;8.00;99.90
7518;DHT22;3800;48.922;9.444;2023-04-01T04:17:27;8.00;99.90
7518;DHT22;3800;48.922;9.444;2023-04-01T04:19:56;8.00;99.90
7518;DHT22;3800;48.922;9.444;2023-04-01T04:22:24;8.00;99.90
7518;DHT22;3800;48.922;9.444;2023-04-01T04:24:52;8.00;99.90
7518;DHT22;3800;48.922;9.444;2023-04-01T04:27:20;8.00;99.90
7518;DHT22;3800;48.922;9.444;2023-04-01T04:29:49;8.00;99.90
7518;DHT22;3800;48.922;9.444;2023-04-01T04:32:17;8.00;99.90
7518;DHT22;3800;48.922;9.444;2023-04-01T04:34:45;8.00;99.90
7518;DHT22;3800;48.922;9.444;2023-04-01T04:37:13;8.00;99.90
7518;DHT22;3800;48.922;9.444;2023-04-01T04:39:42;8.10;99.90
7518;DHT22;3800;48.922;9.444;2023-04-01T04:42:10;8.10;99.90
7518;DHT22;3800;48.922;9.444;2023-04-01T04:44:39;8.10;99.90
7518;DHT22;3800;48.922;9.444;2023-04-01T04:47:06;8.10;99.90
7518;DHT22;3800;48.922;9.444;2023-04-01T04:49:35;8.10;99.90
7518;DHT22;3800;48.922;9.444;2023-04-01T04:52:03;8.10;99.90
7518;DHT22;3800;48.922;9.444;2023-04-01T04:54:31;8.00;99.90
7518;DHT22;3800;48.922;9.444;2023-04-01T04:57:00;8.00;99.90
7518;DHT22;3800;48.922;9.444;2023-04-01T04:59:29;8.00;99.90
7518;DHT22;3800;48.922;9.444;2023-04-01T05:01:58;8.00;99.90
7518;DHT22;3800;48.922;9.444;2023-04-01T05:04:26;8.00;99.90
7518;DHT22;3800;48.922;9.444;2023-04-01T05:06:54;7.90;99.90
7518;DHT22;3800;48.922;9.444;2023-04-01T05:09:22;7.90;99.90
7518;DHT22;3800;48.922;9.444;2023-04-01T05:11:51;7.90;99.90
7518;DHT22;3800;48.922;9.444;2023-04-01T05:14:20;7.90;99.90
7518;DHT22;3800;48.922;9.444;2023-04-01T05:16:50;7.90;99.90
7518;DHT22;3800;48.922;9.444;2023-04-01T05:19:18;7.90;99.90
7518;DHT22;3800;48.922;9.444;2023-04-01T05:21:47;7.90;99.90
7518;DHT22;3800;48.922;9.444;2023-04-01T05:24:16;7.80;99.90
7518;DHT22;3800;48.922;9.444;2023-04-01T05:26:45;7.90;99.90
7518;DHT22;3800;48.922;9.444;2023-04-01T05:29:13;7.80;99.90
7518;DHT22;3800;48.922;9.444;2023-04-01T05:31:42;7.90;99.90
7518;DHT22;3800;48.922;9.444;2023-04-01T05:34:10;7.90;99.90
7518;DHT22;3800;48.922;9.444;2023-04-01T05:36:38;7.90;99.90
7518;DHT22;3800;48.922;9.444;2023-04-01T05:39:07;7.90;99.90
7518;DHT22;3800;48.922;9.444;2023-04-01T05:41:36;7.90;99.90
7518;DHT22;3800;48.922;9.444;2023-04-01T05:44:04;7.90;99.90
7518;DHT22;3800;48.922;9.444;2023-04-01T05:46:33;8.00;99.90
7518;DHT22;3800;48.922;9.444;2023-04-01T05:49:01;8.00;99.90
7518;DHT22;3800;48.922;9.444;2023-04-01T05:51:29;8.00;99.90
7518;DHT22;3800;48.922;9.444;2023-04-01T05:53:57;8.10;99.90
7518;DHT22;3800;48.922;9.444;2023-04-01T05:56:26;8.10;99.90
7518;DHT22;3800;48.922;9.444;2023-04-01T05:58:54;8.10;99.90
7518;DHT22;3800;48.922;9.444;2023-04-01T06:01:22;8.20;99.90
7518;DHT22;3800;48.922;9.444;2023-04-01T06:03:50;8.20;99.90
7518;DHT22;3800;48.922;9.444;2023-04-01T06:06:28;8.20;99.90
7518;DHT22;3800;48.922;9.444;2023-04-01T06:08:56;8.30;99.90
7518;DHT22;3800;48.922;9.444;2023-04-01T06:11:46;8.30;99.90
7518;DHT22;3800;48.922;9.444;2023-04-01T06:17:22;8.40;99.90
7518;DHT22;3800;48.922;9.444;2023-04-01T06:20:00;8.40;99.90
7518;DHT22;3800;48.922;9.444;2023-04-01T06:22:44;8.50;99.90
7518;DHT22;3800;48.922;9.444;2023-04-01T06:25:22;8.50;99.90
7518;DHT22;3800;48.922;9.444;2023-04-01T06:28:19;8.60;99.90
7518;DHT22;3800;48.922;9.444;2023-04-01T06:30:58;8.60;99.90
7518;DHT22;3800;48.922;9.444;2023-04-01T06:33:49;8.70;99.90
7518;DHT22;3800;48.922;9.444;2023-04-01T06:40:02;8.80;99.90
7518;DHT22;3800;48.922;9.444;2023-04-01T06:45:47;8.90;99.90
7518;DHT22;3800;48.922;9.444;2023-04-01T06:51:22;8.90;99.90
7518;DHT22;3800;48.922;9.444;2023-04-01T06:53:56;8.90;99.90
7518;DHT22;3800;48.922;9.444;2023-04-01T06:56:25;8.80;99.90
7518;DHT22;3800;48.922;9.444;2023-04-01T06:58:54;8.80;99.90
7518;DHT22;3800;48.922;9.444;2023-04-01T07:01:45;8.80;99.90
7518;DHT22;3800;48.922;9.444;2023-04-01T07:04:33;8.70;99.90
7518;DHT22;3800;48.922;9.444;2023-04-01T07:07:21;8.70;99.90
7518;DHT22;3800;48.922;9.444;2023-04-01T07:09:58;8.70;99.90
7518;DHT22;3800;48.922;9.444;2023-04-01T07:12:33;8.70;99.90
7518;DHT22;3800;48.922;9.444;2023-04-01T07:15:03;8.80;99.90
7518;DHT22;3800;48.922;9.444;2023-04-01T07:17:31;8.90;99.90
7518;DHT22;3800;48.922;9.444;2023-04-01T07:20:19;9.00;99.90
7518;DHT22;3800;48.922;9.444;2023-04-01T07:22:54;9.00;99.90
7518;DHT22;3800;48.922;9.444;2023-04-01T07:25:24;9.10;99.90
7518;DHT22;3800;48.922;9.444;2023-04-01T07:27:52;9.10;99.90
7518;DHT22;3800;48.922;9.444;2023-04-01T07:30:21;9.20;99.90
7518;DHT22;3800;48.922;9.444;2023-04-01T07:32:54;9.20;99.90
7518;DHT22;3800;48.922;9.444;2023-04-01T07:35:27;9.20;99.90
7518;DHT22;3800;48.922;9.444;2023-04-01T07:40:49;9.20;99.90
7518;DHT22;3800;48.922;9.444;2023-04-01T07:43:52;9.20;99.90
7518;DHT22;3800;48.922;9.444;2023-04-01T07:46:53;9.30;99.90
7518;DHT22;3800;48.922;9.444;2023-04-01T07:49:19;9.20;99.90
7518;DHT22;3800;48.922;9.444;2023-04-01T07:52:05;9.30;99.90
7518;DHT22;3800;48.922;9.444;2023-04-01T07:54:53;9.30;99.90
7518;DHT22;3800;48.922;9.444;2023-04-01T07:57:34;9.30;99.90
7518;DHT22;3800;48.922;9.444;2023-04-01T08:00:24;9.30;99.90
7518;DHT22;3800;48.922;9.444;2023-04-01T08:05:34;9.30;99.90
7518;DHT22;3800;48.922;9.444;2023-04-01T08:08:22;9.30;99.90
7518;DHT22;3800;48.922;9.444;2023-04-01T08:10:52;9.30;99.90
7518;DHT22;3800;48.922;9.444;2023-04-01T08:13:27;9.30;99.90
7518;DHT22;3800;48.922;9.444;2023-04-01T08:15:57;9.40;99.90
7518;DHT22;3800;48.922;9.444;2023-04-01T08:18:44;9.40;99.90
7518;DHT22;3800;48.922;9.444;2023-04-01T08:21:49;9.40;99.90
7518;DHT22;3800;48.922;9.444;2023-04-01T08:24:04;9.40;99.90
7518;DHT22;3800;48.922;9.444;2023-04-01T08:26:34;9.40;99.90
7518;DHT22;3800;48.922;9.444;2023-04-01T08:29:04;9.40;99.90
7518;DHT22;3800;48.922;9.444;2023-04-01T08:31:37;9.40;99.90
7518;DHT22;3800;48.922;9.444;2023-04-01T08:34:14;9.50;99.90
7518;DHT22;3800;48.922;9.444;2023-04-01T08:36:41;9.50;99.90
7518;DHT22;3800;48.922;9.444;2023-04-01T08:39:10;9.50;99.90
7518;DHT22;3800;48.922;9.444;2023-04-01T08:41:49;9.50;99.90
7518;DHT22;3800;48.922;9.444;2023-04-01T08:51:13;9.50;99.90
7518;DHT22;3800;48.922;9.444;2023-04-01T08:53:16;9.50;99.90
7518;DHT22;3800;48.922;9.444;2023-04-01T08:58:54;9.40;99.90
7518;DHT22;3800;48.922;9.444;2023-04-01T09:02:00;9.40;99.90
7518;DHT22;3800;48.922;9.444;2023-04-01T09:07:20;9.20;99.90
7518;DHT22;3800;48.922;9.444;2023-04-01T09:13:13;9.10;99.90
7518;DHT22;3800;48.922;9.444;2023-04-01T09:16:58;9.10;99.90
7518;DHT22;3800;48.922;9.444;2023-04-01T09:19:06;9.00;99.90
7518;DHT22;3800;48.922;9.444;2023-04-01T09:24:42;9.00;99.90
7518;DHT22;3800;48.922;9.444;2023-04-01T09:30:18;9.00;99.90
7518;DHT22;3800;48.922;9.444;2023-04-01T09:32:45;8.90;99.90
7518;DHT22;3800;48.922;9.444;2023-04-01T09:35:38;9.00;99.90
7518;DHT22;3800;48.922;9.444;2023-04-01T09:41:01;9.00;99.90
7518;DHT22;3800;48.922;9.444;2023-04-01T09:43:29;9.00;99.90
7518;DHT22;3800;48.922;9.444;2023-04-01T09:46:26;9.00;99.90
7518;DHT22;3800;48.922;9.444;2023-04-01T09:49:02;9.00;99.90
7518;DHT22;3800;48.922;9.444;2023-04-01T09:51:52;9.00;99.90
7518;DHT22;3800;48.922;9.444;2023-04-01T10:00:15;8.90;99.90
7518;DHT22;3800;48.922;9.444;2023-04-01T10:02:59;8.90;99.90
7518;DHT22;3800;48.922;9.444;2023-04-01T10:08:18;8.90;99.90
7518;DHT22;3800;48.922;9.444;2023-04-01T10:10:58;8.90;99.90
7518;DHT22;3800;48.922;9.444;2023-04-01T10:13:42;8.90;99.90
7518;DHT22;3800;48.922;9.444;2023-04-01T10:16:25;9.00;99.90
7518;DHT22;3800;48.922;9.444;2023-04-01T10:22:11;9.00;99.90
7518;DHT22;3800;48.922;9.444;2023-04-01T10:25:05;9.00;99.90
7518;DHT22;3800;48.922;9.444;2023-04-01T10:31:58;8.90;99.90
7518;DHT22;3800;48.922;9.444;2023-04-01T10:38:20;8.90;99.90
7518;DHT22;3800;48.922;9.444;2023-04-01T10:46:18;9.00;99.90
7518;DHT22;3800;48.922;9.444;2023-04-01T10:49:00;9.00;99.90
7518;DHT22;3800;48.922;9.444;2023-04-01T10:51:35;9.00;99.90
7518;DHT22;3800;48.922;9.444;2023-04-01T11:03:19;9.00;99.90
7518;DHT22;3800;48.922;9.444;2023-04-01T11:06:05;9.00;99.90
7518;DHT22;3800;48.922;9.444;2023-04-01T11:11:25;9.00;99.90
7518;DHT22;3800;48.922;9.444;2023-04-01T11:17:20;9.00;99.90
7518;DHT22;3800;48.922;9.444;2023-04-01T11:20:02;9.00;99.90
7518;DHT22;3800;48.922;9.444;2023-04-01T11:23:11;9.00;99.90
7518;DHT22;3800;48.922;9.444;2023-04-01T11:28:42;9.00;99.90
7518;DHT22;3800;48.922;9.444;2023-04-01T11:31:31;9.00;99.90
7518;DHT22;3800;48.922;9.444;2023-04-01T11:34:11;9.10;99.90
7518;DHT22;3800;48.922;9.444;2023-04-01T11:37:00;9.10;99.90
7518;DHT22;3800;48.922;9.444;2023-04-01T11:40:02;9.20;99.90
7518;DHT22;3800;48.922;9.444;2023-04-01T11:42:49;9.20;99.90
7518;DHT22;3800;48.922;9.444;2023-04-01T11:45:35;9.30;99.90
7518;DHT22;3800;48.922;9.444;2023-04-01T11:48:08;9.20;99.90
7518;DHT22;3800;48.922;9.444;2023-04-01T11:53:23;9.30;99.90
7518;DHT22;3800;48.922;9.444;2023-04-01T11:59:37;9.40;99.90
7518;DHT22;3800;48.922;9.444;2023-04-01T12:02:11;9.30;99.90
7518;DHT22;3800;48.922;9.444;2023-04-01T12:04:49;9.40;99.90
7518;DHT22;3800;48.922;9.444;2023-04-01T12:07:21;9.40;99.90
7518;DHT22;3800;48.922;9.444;2023-04-01T12:09:59;9.40;99.90
7518;DHT22;3800;48.922;9.444;2023-04-01T12:12:59;9.40;99.90
7518;DHT22;3800;48.922;9.444;2023-04-01T12:15:54;9.50;99.90
7518;DHT22;3800;48.922;9.444;2023-04-01T12:18:48;9.50;99.90
7518;DHT22;3800;48.922;9.444;2023-04-01T12:21:36;9.60;99.90
7518;DHT22;3800;48.922;9.444;2023-04-01T12:24:42;9.50;99.90
7518;DHT22;3800;48.922;9.444;2023-04-01T12:27:14;9.50;99.90
7518;DHT22;3800;48.922;9.444;2023-04-01T12:30:02;9.40;99.90
7518;DHT22;3800;48.922;9.444;2023-04-01T12:35:23;9.40;99.90
7518;DHT22;3800;48.922;9.444;2023-04-01T12:38:13;9.40;99.90
7518;DHT22;3800;48.922;9.444;2023-04-01T12:44:07;9.40;99.90
7518;DHT22;3800;48.922;9.444;2023-04-01T12:46:54;9.50;99.90
7518;DHT22;3800;48.922;9.444;2023-04-01T12:52:07;9.50;99.90
7518;DHT22;3800;48.922;9.444;2023-04-01T12:57:50;9.50;99.90
7518;DHT22;3800;48.922;9.444;2023-04-01T13:09:08;9.40;99.90
7518;DHT22;3800;48.922;9.444;2023-04-01T13:12:06;9.40;99.90
7518;DHT22;3800;48.922;9.444;2023-04-01T13:14:40;9.40;99.90
7518;DHT22;3800;48.922;9.444;2023-04-01T13:19:59;9.50;99.90
7518;DHT22;3800;48.922;9.444;2023-04-01T13:22:32;9.50;99.90
7518;DHT22;3800;48.922;9.444;2023-04-01T13:24:59;9.50;99.90
7518;DHT22;3800;48.922;9.444;2023-04-01T13:27:40;9.50;99.90
7518;DHT22;3800;48.922;9.444;2023-04-01T13:30:21;9.40;99.90
7518;DHT22;3800;48.922;9.444;2023-04-01T13:33:13;9.40;99.90
7518;DHT22;3800;48.922;9.444;2023-04-01T13:35:46;9.30;99.90
7518;DHT22;3800;48.922;9.444;2023-04-01T13:38:22;9.20;99.90
7518;DHT22;3800;48.922;9.444;2023-04-01T13:41:01;9.20;99.90
7518;DHT22;3800;48.922;9.444;2023-04-01T13:43:30;9.20;99.90
7518;DHT22;3800;48.922;9.444;2023-04-01T13:46:22;9.20;99.90
7518;DHT22;3800;48.922;9.444;2023-04-01T13:52:24;9.10;99.90
7518;DHT22;3800;48.922;9.444;2023-04-01T13:55:21;9.10;99.90
7518;DHT22;3800;48.922;9.444;2023-04-01T13:58:07;9.10;99.90
7518;DHT22;3800;48.922;9.444;2023-04-01T14:00:42;9.00;99.90
7518;DHT22;3800;48.922;9.444;2023-04-01T14:03:25;9.00;99.90
7518;DHT22;3800;48.922;9.444;2023-04-01T14:06:05;9.00;99.90
7518;DHT22;3800;48.922;9.444;2023-04-01T14:09:42;9.00;99.90
7518;DHT22;3800;48.922;9.444;2023-04-01T14:15:07;9.10;99.90
7518;DHT22;3800;48.922;9.444;2023-04-01T14:17:46;9.00;99.90
7518;DHT22;3800;48.922;9.444;2023-04-01T14:20:39;9.10;99.90
7518;DHT22;3800;48.922;9.444;2023-04-01T14:23:33;9.10;99.90
7518;DHT22;3800;48.922;9.444;2023-04-01T14:29:02;9.10;99.90
7518;DHT22;3800;48.922;9.444;2023-04-01T14:34:18;9.00;99.90
7518;DHT22;3800;48.922;9.444;2023-04-01T14:36:50;9.00;99.90
7518;DHT22;3800;48.922;9.444;2023-04-01T14:39:49;9.00;99.90
7518;DHT22;3800;48.922;9.444;2023-04-01T14:45:32;8.90;99.90
7518;DHT22;3800;48.922;9.444;2023-04-01T14:48:03;8.90;99.90
7518;DHT22;3800;48.922;9.444;2023-04-01T14:50:50;8.80;99.90
7518;DHT22;3800;48.922;9.444;2023-04-01T14:53:33;8.80;99.90
7518;DHT22;3800;48.922;9.444;2023-04-01T14:56:01;8.80;99.90
7518;DHT22;3800;48.922;9.444;2023-04-01T14:58:41;8.80;99.90
7518;DHT22;3800;48.922;9.444;2023-04-01T15:01:19;8.80;99.90
7518;DHT22;3800;48.922;9.444;2023-04-01T15:07:19;8.80;99.90
7518;DHT22;3800;48.922;9.444;2023-04-01T15:09:54;8.80;99.90
7518;DHT22;3800;48.922;9.444;2023-04-01T15:12:36;8.80;99.90
7518;DHT22;3800;48.922;9.444;2023-04-01T15:15:09;8.80;99.90
7518;DHT22;3800;48.922;9.444;2023-04-01T15:18:03;8.80;99.90
7518;DHT22;3800;48.922;9.444;2023-04-01T15:20:50;8.80;99.90
7518;DHT22;3800;48.922;9.444;2023-04-01T15:23:38;8.80;99.90
7518;DHT22;3800;48.922;9.444;2023-04-01T15:26:08;8.80;99.90
7518;DHT22;3800;48.922;9.444;2023-04-01T15:28:38;8.80;99.90
7518;DHT22;3800;48.922;9.444;2023-04-01T15:31:14;8.80;99.90
7518;DHT22;3800;48.922;9.444;2023-04-01T15:33:48;8.80;99.90
7518;DHT22;3800;48.922;9.444;2023-04-01T15:36:17;8.80;99.90
7518;DHT22;3800;48.922;9.444;2023-04-01T15:38:53;8.80;99.90
7518;DHT22;3800;48.922;9.444;2023-04-01T15:41:23;8.90;99.90
7518;DHT22;3800;48.922;9.444;2023-04-01T15:43:51;8.90;99.90
7518;DHT22;3800;48.922;9.444;2023-04-01T15:46:26;9.00;99.90
7518;DHT22;3800;48.922;9.444;2023-04-01T15:55:09;9.00;99.90
7518;DHT22;3800;48.922;9.444;2023-04-01T15:58:01;9.10;99.90
7518;DHT22;3800;48.922;9.444;2023-04-01T16:00:29;9.00;99.90
7518;DHT22;3800;48.922;9.444;2023-04-01T16:03:09;9.10;99.90
7518;DHT22;3800;48.922;9.444;2023-04-01T16:05:55;9.10;99.90
7518;DHT22;3800;48.922;9.444;2023-04-01T16:11:14;9.20;99.90
7518;DHT22;3800;48.922;9.444;2023-04-01T16:13:50;9.20;99.90
7518;DHT22;3800;48.922;9.444;2023-04-01T16:16:31;9.20;99.90
7518;DHT22;3800;48.922;9.444;2023-04-01T16:19:21;9.20;99.90
7518;DHT22;3800;48.922;9.444;2023-04-01T16:21:51;9.10;99.90
7518;DHT22;3800;48.922;9.444;2023-04-01T16:24:24;9.10;99.90
7518;DHT22;3800;48.922;9.444;2023-04-01T16:26:55;9.10;99.90
7518;DHT22;3800;48.922;9.444;2023-04-01T16:29:30;9.10;99.90
7518;DHT22;3800;48.922;9.444;2023-04-01T16:32:11;9.20;99.90
7518;DHT22;3800;48.922;9.444;2023-04-01T16:34:43;9.20;99.90
7518;DHT22;3800;48.922;9.444;2023-04-01T16:37:19;9.20;99.90
7518;DHT22;3800;48.922;9.444;2023-04-01T16:39:50;9.20;99.90
7518;DHT22;3800;48.922;9.444;2023-04-01T16:42:35;9.20;99.90
7518;DHT22;3800;48.922;9.444;2023-04-01T16:47:56;9.20;99.90
7518;DHT22;3800;48.922;9.444;2023-04-01T16:53:30;9.30;99.90
7518;DHT22;3800;48.922;9.444;2023-04-01T16:56:10;9.30;99.90
7518;DHT22;3800;48.922;9.444;2023-04-01T16:58:37;9.30;99.90
7518;DHT22;3800;48.922;9.444;2023-04-01T17:01:21;9.20;99.90
7518;DHT22;3800;48.922;9.444;2023-04-01T17:03:50;9.30;99.90
7518;DHT22;3800;48.922;9.444;2023-04-01T17:06:25;9.20;99.90
7518;DHT22;3800;48.922;9.444;2023-04-01T17:11:33;9.10;99.90
7518;DHT22;3800;48.922;9.444;2023-04-01T17:15:00;9.10;99.90
7518;DHT22;3800;48.922;9.444;2023-04-01T17:17:15;9.10;99.90
7518;DHT22;3800;48.922;9.444;2023-04-01T17:22:38;9.00;99.90
7518;DHT22;3800;48.922;9.444;2023-04-01T17:25:23;8.90;99.90
7518;DHT22;3800;48.922;9.444;2023-04-01T17:28:26;8.90;99.90
7518;DHT22;3800;48.922;9.444;2023-04-01T17:31:07;8.90;99.90
7518;DHT22;3800;48.922;9.444;2023-04-01T17:36:43;8.90;99.90
7518;DHT22;3800;48.922;9.444;2023-04-01T17:39:27;8.90;99.90
7518;DHT22;3800;48.922;9.444;2023-04-01T17:42:05;8.90;99.90
7518;DHT22;3800;48.922;9.444;2023-04-01T17:47:24;8.80;99.90
7518;DHT22;3800;48.922;9.444;2023-04-01T17:50:14;8.80;99.90
7518;DHT22;3800;48.922;9.444;2023-04-01T17:52:55;8.80;99.90
7518;DHT22;3800;48.922;9.444;2023-04-01T17:55:45;8.80;99.90
7518;DHT22;3800;48.922;9.444;2023-04-01T17:58:25;8.80;99.90
7518;DHT22;3800;48.922;9.444;2023-04-01T18:01:02;8.80;99.90
7518;DHT22;3800;48.922;9.444;2023-04-01T18:09:43;8.80;99.90
7518;DHT22;3800;48.922;9.444;2023-04-01T18:11:59;8.80;99.90
7518;DHT22;3800;48.922;9.444;2023-04-01T18:17:23;8.90;99.90
7518;DHT22;3800;48.922;9.444;2023-04-01T18:20:14;9.00;99.90
7518;DHT22;3800;48.922;9.444;2023-04-01T18:22:39;8.90;99.90
7518;DHT22;3800;48.922;9.444;2023-04-01T18:25:14;9.00;99.90
7518;DHT22;3800;48.922;9.444;2023-04-01T18:27:50;8.90;99.90
7518;DHT22;3800;48.922;9.444;2023-04-01T18:30:21;9.00;99.90
7518;DHT22;3800;48.922;9.444;2023-04-01T18:33:19;9.00;99.90
7518;DHT22;3800;48.922;9.444;2023-04-01T18:36:02;9.00;99.90
7518;DHT22;3800;48.922;9.444;2023-04-01T18:38:36;9.00;99.90
7518;DHT22;3800;48.922;9.444;2023-04-01T18:41:18;9.00;99.90
7518;DHT22;3800;48.922;9.444;2023-04-01T18:45:15;9.00;99.90
7518;DHT22;3800;48.922;9.444;2023-04-01T18:52:39;8.90;99.90
7518;DHT22;3800;48.922;9.444;2023-04-01T18:55:39;8.80;99.90
7518;DHT22;3800;48.922;9.444;2023-04-01T18:58:32;8.80;99.90
7518;DHT22;3800;48.922;9.444;2023-04-01T19:01:12;8.80;99.90
7518;DHT22;3800;48.922;9.444;2023-04-01T19:04:14;8.70;99.90
7518;DHT22;3800;48.922;9.444;2023-04-01T19:06:48;8.70;99.90
7518;DHT22;3800;48.922;9.444;2023-04-01T19:09:29;8.70;99.90
7518;DHT22;3800;48.922;9.444;2023-04-01T19:14:53;8.70;99.90
7518;DHT22;3800;48.922;9.444;2023-04-01T19:17:44;8.70;99.90
7518;DHT22;3800;48.922;9.444;2023-04-01T19:20:25;8.70;99.90
7518;DHT22;3800;48.922;9.444;2023-04-01T19:26:00;8.60;99.90
7518;DHT22;3800;48.922;9.444;2023-04-01T19:28:39;8.60;99.90
7518;DHT22;3800;48.922;9.444;2023-04-01T19:31:17;8.60;99.90
7518;DHT22;3800;48.922;9.444;2023-04-01T19:36:42;8.50;99.90
7518;DHT22;3800;48.922;9.444;2023-04-01T19:39:17;8.50;99.90
7518;DHT22;3800;48.922;9.444;2023-04-01T19:41:54;8.40;99.90
7518;DHT22;3800;48.922;9.444;2023-04-01T19:44:30;8.40;99.90
7518;DHT22;3800;48.922;9.444;2023-04-01T19:47:20;8.40;99.90
7518;DHT22;3800;48.922;9.444;2023-04-01T19:49:51;8.30;99.90
7518;DHT22;3800;48.922;9.444;2023-04-01T19:52:20;8.30;99.90
7518;DHT22;3800;48.922;9.444;2023-04-01T19:55:14;8.30;99.90
7518;DHT22;3800;48.922;9.444;2023-04-01T19:57:46;8.30;99.90
7518;DHT22;3800;48.922;9.444;2023-04-01T20:00:20;8.30;99.90
7518;DHT22;3800;48.922;9.444;2023-04-01T20:03:03;8.30;99.90
7518;DHT22;3800;48.922;9.444;2023-04-01T20:05:49;8.30;99.90
7518;DHT22;3800;48.922;9.444;2023-04-01T20:08:42;8.30;99.90
7518;DHT22;3800;48.922;9.444;2023-04-01T20:11:14;8.30;99.90
7518;DHT22;3800;48.922;9.444;2023-04-01T20:13:46;8.30;99.90
7518;DHT22;3800;48.922;9.444;2023-04-01T20:16:16;8.30;99.90
7518;DHT22;3800;48.922;9.444;2023-04-01T20:18:50;8.20;99.90
7518;DHT22;3800;48.922;9.444;2023-04-01T20:21:33;8.20;99.90